SCELSCIE

Guest
Details From SCEL - Arturo Merino Benitez Intl
To SCIE - Carriel Sur Intl
Flight Number -
Tags Generated
Created
Modified
Stats Distance 233 nm / 432 km
Max Altitude 0 ft / 0 m
Waypoints 3
Social Downloads 3
Likes 0
Share VATSIM

Download

Looking for another format? Having issues loading an existing format? Contact us
Advertisement - Login to hide

Notes

Generated

Route

SCEL R1508 SCIE

ID Type Via Altitude Latitude Longitude Leg Dist Tot Dist Heading (true) Name
O SCEL APT - 0 ft / 0 m -33.37608˚ -70.78671˚ - 0 nm - -
R1508 FIX - 0 ft / 0 m -36.78203˚ -73.06856˚ 233 nm 233 nm 208° / 209° -
O SCIE APT - 0 ft / 0 m -36.78203˚ -73.06856˚ 0 nm 233 nm 0° / 180° -

Altitude Profile

Advertisement - Login to hide

Weather


0- 5 10 15 20 25 30 35+ Temperature / ° C

Clouds and Precipitation
Forecast for 2018-05-21 18:00 UTC. Updated 2 hours ago

Ground ~20,000 ft ~40,000 ft Winds

SCEL

Details ICAO SCEL (SCL)
Name Arturo Merino Benitez Intl
Region Chile
Timezone America/Santiago (UTC-4.0)
Stats Elevation 1,550 ft / 472 m (AMSL)
Location -33.389775° -70.794366°
Runways 2
Magnetic Variation 1.734° E

METAR

SCEL 211900Z 16009KT 130V190 CAVOK 20/05 Q1017 NOSIG

Decode

TAF

TAF SCEL 211615Z 2118/2218 VRB02KT CAVOK TX25/2119Z TN03/2211Z BECMG 2201/2203 16004KT BECMG 2204/2206 VRB02KT TEMPO 2207/2212 17004KT 7000 NSC BECMG 2216/2218 19012KT

Decode

Departure Runways

ID Width Length Bearing (true) Bearing (mag) Surface Threshold Offset Overrun Length
17L 180 ft / 55 m 10,523 ft / 3,207 m 177.43° 175.70° Asphalt 0 ft / 0 m 0 ft / 0 m
17R 148 ft / 45 m 12,504 ft / 3,811 m 177.44° 175.71° Asphalt 0 ft / 0 m 0 ft / 0 m
35L 148 ft / 45 m 12,504 ft / 3,811 m 357.44° 355.71° Asphalt 0 ft / 0 m 0 ft / 0 m
35R 180 ft / 55 m 10,523 ft / 3,207 m 357.43° 355.70° Asphalt 1,800 ft / 549 m 0 ft / 0 m

SCIE

Details ICAO SCIE (CCP)
Name Carriel Sur Intl
Region Chile
Timezone America/Santiago (UTC-4.0)
Stats Elevation 26 ft / 8 m (AMSL)
Location -36.772653° -73.063110°
Runways 1
Magnetic Variation 5.718° E

METAR

SCIE 211900Z 25009KT CAVOK 13/07 Q1022

Decode

TAF

TAF SCIE 211615Z 2118/2218 20004KT CAVOK TX14/2119Z TN04/2211Z BECMG 2118/2120 18012KT TEMPO 2206/2212 15004KT 4000 BR SCT010 BECMG 2216/2218 23012KT

Decode

Destination Runways

ID Width Length Bearing (true) Bearing (mag) Surface Threshold Offset Overrun Length
02 148 ft / 45 m 7,553 ft / 2,302 m 24.99° 19.27° Asphalt 0 ft / 0 m 0 ft / 0 m
20 148 ft / 45 m 7,553 ft / 2,302 m 204.98° 199.26° Asphalt 0 ft / 0 m 0 ft / 0 m

Approach Navaids

Runway Type Ident Frequency Range Bearing (true) Bearing (mag) Slope Elevation
02 Localiser ICEP 109.90 MHz 18 nm / 33 km 17.95° 12.23° - 25 ft / 8 m (AMSL)
02 Glidescope ICEP 109.90 MHz 10 nm / 19 km 18.00° 12.28° 3.00° 25 ft / 8 m (AMSL)
02 DME ICEP 109.90 MHz 18 nm / 33 km - - - 25 ft / 8 m (AMSL)

Popular Alternatives